createdAt,value
2022-09-11T00:02:38.805Z,18.90
2022-09-11T00:05:25.852Z,19.40
2022-09-11T00:08:14.732Z,19.10
2022-09-11T00:11:27.213Z,17.17
2022-09-11T00:14:14.174Z,16.00
2022-09-11T00:16:59.307Z,17.00
2022-09-11T00:19:44.747Z,18.33
2022-09-11T00:22:30.184Z,16.50
2022-09-11T00:25:15.449Z,16.70
2022-09-11T00:28:01.981Z,16.42
2022-09-11T00:30:56.606Z,15.27
2022-09-11T00:33:42.322Z,14.93
2022-09-11T00:36:31.144Z,14.32
2022-09-11T00:39:16.524Z,14.13
2022-09-11T00:42:02.424Z,14.32
2022-09-11T00:44:47.946Z,14.20
2022-09-11T00:47:34.028Z,14.98
2022-09-11T00:50:23.428Z,15.27
2022-09-11T00:53:10.073Z,14.75
2022-09-11T00:55:59.951Z,18.50
2022-09-11T00:58:48.591Z,20.13
2022-09-11T01:01:34.246Z,17.55
2022-09-11T01:04:21.568Z,18.65
2022-09-11T01:07:06.956Z,19.85
2022-09-11T01:09:53.592Z,18.63
2022-09-11T01:12:38.829Z,18.25
2022-09-11T01:15:38.786Z,18.92
2022-09-11T01:18:32.418Z,19.67
2022-09-11T01:21:46.431Z,19.83
2022-09-11T01:24:56.001Z,33.17
2022-09-11T01:28:03.259Z,26.55
2022-09-11T01:30:54.327Z,26.00
2022-09-11T01:34:19.366Z,28.77
2022-09-11T01:37:13.893Z,29.17
2022-09-11T01:40:05.406Z,34.63
2022-09-11T01:42:59.714Z,29.25
2022-09-11T01:45:47.178Z,29.83
2022-09-11T01:49:01.348Z,31.08
2022-09-11T01:51:52.309Z,28.70
2022-09-11T01:54:45.037Z,31.30
2022-09-11T01:57:43.890Z,28.73
2022-09-11T02:00:32.224Z,29.95
2022-09-11T02:03:23.057Z,33.28
2022-09-11T02:06:15.097Z,30.50
2022-09-11T02:09:05.580Z,29.88
2022-09-11T02:11:54.500Z,26.65
2022-09-11T02:14:47.968Z,31.13
2022-09-11T02:17:59.374Z,27.17
2022-09-11T02:20:47.630Z,27.17
2022-09-11T02:23:33.423Z,25.10
2022-09-11T02:26:23.083Z,23.88
2022-09-11T02:29:08.710Z,27.05
2022-09-11T02:31:54.888Z,23.52
2022-09-11T02:34:41.762Z,21.85
2022-09-11T02:37:26.990Z,21.80
2022-09-11T02:40:34.217Z,19.92
2022-09-11T02:43:47.400Z,19.88
2022-09-11T02:46:56.684Z,20.73
2022-09-11T02:49:59.230Z,21.30
2022-09-11T02:53:06.373Z,21.00
2022-09-11T02:56:26.151Z,21.70
2022-09-11T02:59:21.883Z,22.15
2022-09-11T03:02:12.615Z,20.13
2022-09-11T03:04:59.032Z,20.13
2022-09-11T03:07:44.324Z,20.80
2022-09-11T03:10:29.940Z,21.23
2022-09-11T03:13:16.674Z,20.23
2022-09-11T03:16:04.785Z,22.77
2022-09-11T03:18:50.555Z,21.27
2022-09-11T03:21:36.563Z,21.08
2022-09-11T03:24:22.068Z,21.75
2022-09-11T03:27:07.541Z,21.92
2022-09-11T03:29:53.336Z,19.63
2022-09-11T03:32:38.731Z,18.08
2022-09-11T03:35:25.351Z,18.10
2022-09-11T03:38:11.861Z,17.23
2022-09-11T03:40:58.425Z,16.10
2022-09-11T03:43:43.803Z,18.40
2022-09-11T03:46:29.467Z,20.52
2022-09-11T03:49:15.913Z,19.88
2022-09-11T03:52:01.707Z,18.77
2022-09-11T03:54:47.560Z,19.58
2022-09-11T03:57:36.890Z,18.52
2022-09-11T04:00:22.294Z,19.15
2022-09-11T04:03:07.692Z,18.25
2022-09-11T04:06:01.011Z,15.25
2022-09-11T04:08:49.427Z,14.95
2022-09-11T04:11:38.728Z,16.52
2022-09-11T04:14:28.115Z,16.33
2022-09-11T04:17:17.211Z,15.57
2022-09-11T04:20:04.059Z,17.42
2022-09-11T04:22:49.837Z,19.10
2022-09-11T04:25:35.391Z,16.60
2022-09-11T04:28:22.441Z,16.40
2022-09-11T04:31:08.200Z,15.82
2022-09-11T04:33:57.674Z,15.93
2022-09-11T04:36:44.433Z,18.73
2022-09-11T04:39:34.132Z,16.67
2022-09-11T04:42:20.992Z,16.55
2022-09-11T04:45:06.992Z,18.55
2022-09-11T04:47:53.109Z,21.10
2022-09-11T04:50:39.057Z,19.48
2022-09-11T04:53:39.815Z,18.15
2022-09-11T04:56:29.112Z,17.50
2022-09-11T04:59:18.128Z,16.63
2022-09-11T05:02:20.077Z,17.52
2022-09-11T05:05:09.812Z,17.60
2022-09-11T05:07:55.108Z,16.17
2022-09-11T05:10:42.836Z,18.05
2022-09-11T05:13:33.116Z,16.10
2022-09-11T05:16:21.623Z,16.27
2022-09-11T05:19:08.032Z,18.15
2022-09-11T05:21:55.082Z,15.35
2022-09-11T05:24:41.840Z,16.00
2022-09-11T05:27:27.020Z,18.10
2022-09-11T05:30:13.158Z,18.83
2022-09-11T05:32:59.124Z,16.17
2022-09-11T05:35:45.016Z,15.38
2022-09-11T05:38:30.579Z,14.88
2022-09-11T05:41:16.534Z,17.30
2022-09-11T05:44:02.197Z,17.48
2022-09-11T05:46:48.830Z,17.15
2022-09-11T05:49:35.087Z,15.27
2022-09-11T05:52:21.033Z,16.13
2022-09-11T05:55:06.398Z,14.98
2022-09-11T05:57:53.072Z,14.75
2022-09-11T06:00:38.801Z,13.90
2022-09-11T06:03:26.368Z,14.05
2022-09-11T06:06:13.316Z,13.77
2022-09-11T06:08:59.606Z,14.13
2022-09-11T06:11:45.238Z,13.73
2022-09-11T06:14:30.547Z,12.10
2022-09-11T06:17:16.013Z,10.70
2022-09-11T06:20:01.572Z,10.10
2022-09-11T06:22:48.418Z,9.60
2022-09-11T06:25:34.376Z,9.00
2022-09-11T06:28:23.881Z,8.38
2022-09-11T06:31:16.255Z,7.47
2022-09-11T06:34:02.250Z,7.18
2022-09-11T06:36:51.860Z,6.35
2022-09-11T06:39:38.153Z,6.65
2022-09-11T06:42:23.469Z,5.45
2022-09-11T06:45:09.985Z,5.03
2022-09-11T06:47:55.381Z,4.95
2022-09-11T06:50:41.116Z,4.18
2022-09-11T06:53:26.414Z,4.70
2022-09-11T06:56:17.299Z,4.20
2022-09-11T06:59:04.691Z,4.93
2022-09-11T07:01:51.957Z,3.67
2022-09-11T07:04:37.409Z,6.10
2022-09-11T07:07:23.186Z,7.40
2022-09-11T07:10:10.340Z,4.70
2022-09-11T07:12:56.164Z,4.70
2022-09-11T07:15:42.426Z,4.75
2022-09-11T07:18:34.131Z,4.00
2022-09-11T07:21:22.104Z,3.78
2022-09-11T07:24:10.874Z,4.18
2022-09-11T07:27:00.589Z,3.47
2022-09-11T07:29:50.569Z,3.60
2022-09-11T07:32:37.472Z,4.32
2022-09-11T07:35:23.226Z,3.63
2022-09-11T07:38:11.326Z,4.07
2022-09-11T07:40:58.491Z,3.50
2022-09-11T07:43:48.432Z,4.10
2022-09-11T07:46:35.688Z,3.28
2022-09-11T07:49:24.128Z,4.80
2022-09-11T07:52:14.844Z,3.67
2022-09-11T07:55:07.137Z,2.25
2022-09-11T07:57:54.233Z,3.60
2022-09-11T08:00:41.282Z,3.33
2022-09-11T08:03:35.773Z,2.50
2022-09-11T08:06:23.140Z,3.70
2022-09-11T08:09:15.074Z,2.85
2022-09-11T08:12:06.301Z,3.28
2022-09-11T08:14:54.436Z,2.35
2022-09-11T08:17:40.820Z,2.78
2022-09-11T08:20:26.321Z,3.22
2022-09-11T08:23:12.957Z,2.65
2022-09-11T08:26:26.276Z,2.80
2022-09-11T08:29:12.207Z,2.10
2022-09-11T08:32:02.186Z,3.17
2022-09-11T08:34:49.397Z,3.30
2022-09-11T08:37:34.797Z,1.90
2022-09-11T08:40:20.409Z,2.60
2022-09-11T08:43:05.527Z,2.45
2022-09-11T08:45:58.935Z,4.18
2022-09-11T08:48:59.034Z,2.40
2022-09-11T08:51:46.325Z,2.58
2022-09-11T08:54:34.861Z,2.33
2022-09-11T08:57:37.691Z,2.42
2022-09-11T09:00:32.076Z,3.08
2022-09-11T09:03:30.318Z,1.95
2022-09-11T09:06:49.548Z,2.60
2022-09-11T09:10:03.337Z,3.85
2022-09-11T09:13:03.894Z,3.17
2022-09-11T09:16:02.690Z,2.20
2022-09-11T09:18:57.992Z,2.65
2022-09-11T09:22:11.489Z,3.80
2022-09-11T09:25:09.876Z,2.50
2022-09-11T09:28:03.312Z,3.17
2022-09-11T09:31:00.163Z,2.78
2022-09-11T09:33:56.672Z,4.22
2022-09-11T09:37:14.074Z,2.75
2022-09-11T09:40:01.415Z,3.45
2022-09-11T09:43:20.463Z,2.22
2022-09-11T09:46:40.227Z,3.80
2022-09-11T09:49:29.694Z,3.70
2022-09-11T09:52:21.222Z,2.38
2022-09-11T09:55:15.077Z,4.22
2022-09-11T09:58:00.418Z,2.88
2022-09-11T10:00:46.048Z,3.72
2022-09-11T10:03:31.527Z,3.72
2022-09-11T10:06:21.965Z,3.85
2022-09-11T10:09:25.269Z,3.20
2022-09-11T10:12:17.869Z,2.78
2022-09-11T10:15:04.687Z,3.03
2022-09-11T10:17:53.420Z,3.08
2022-09-11T10:20:39.320Z,2.50
2022-09-11T10:23:26.519Z,2.15
2022-09-11T10:26:37.716Z,2.45
2022-09-11T10:29:32.090Z,2.63
2022-09-11T10:32:18.150Z,2.40
2022-09-11T10:35:09.519Z,2.75
2022-09-11T10:38:08.825Z,2.42
2022-09-11T10:41:03.181Z,2.70
2022-09-11T10:44:02.079Z,3.20
2022-09-11T10:47:04.561Z,2.28
2022-09-11T10:49:50.009Z,3.05
2022-09-11T10:52:50.962Z,2.65
2022-09-11T10:55:41.537Z,2.83
2022-09-11T10:58:33.466Z,2.88
2022-09-11T11:01:19.134Z,2.80
2022-09-11T11:04:08.201Z,2.47
2022-09-11T11:07:20.867Z,1.83
2022-09-11T11:10:16.382Z,3.60
2022-09-11T11:13:22.824Z,2.63
2022-09-11T11:16:28.331Z,2.78
2022-09-11T11:19:47.864Z,2.25
2022-09-11T11:23:06.137Z,3.95
2022-09-11T11:26:19.694Z,3.20
2022-09-11T11:29:19.894Z,3.50
2022-09-11T11:32:11.208Z,2.58
2022-09-11T11:35:14.056Z,2.92
2022-09-11T11:38:14.357Z,2.70
2022-09-11T11:41:07.800Z,2.83
2022-09-11T11:43:55.533Z,2.95
2022-09-11T11:46:48.719Z,2.47
2022-09-11T11:50:05.902Z,3.15
2022-09-11T11:53:02.838Z,1.92
2022-09-11T11:55:57.074Z,2.55
2022-09-11T11:58:46.988Z,2.75
2022-09-11T12:01:37.115Z,2.20
2022-09-11T12:05:02.037Z,2.67
2022-09-11T12:07:48.270Z,2.88
2022-09-11T12:10:38.023Z,3.13
2022-09-11T12:13:31.498Z,3.10
2022-09-11T12:16:28.468Z,3.72
2022-09-11T12:19:15.254Z,2.10
2022-09-11T12:22:06.313Z,2.10
2022-09-11T12:24:55.055Z,3.28
2022-09-11T12:27:40.229Z,3.15
2022-09-11T12:30:28.249Z,1.63
2022-09-11T12:33:41.676Z,2.83
2022-09-11T12:37:00.733Z,1.92
2022-09-11T12:39:53.076Z,2.72
2022-09-11T12:42:38.196Z,2.88
2022-09-11T12:45:35.498Z,3.80
2022-09-11T12:48:25.922Z,2.55
2022-09-11T12:51:29.489Z,2.28
2022-09-11T12:54:33.684Z,1.70
2022-09-11T12:57:35.101Z,1.77
2022-09-11T13:00:34.858Z,1.83
2022-09-11T13:03:28.007Z,2.08
2022-09-11T13:06:13.819Z,1.88
2022-09-11T13:09:00.857Z,2.30
2022-09-11T13:11:51.662Z,1.67
2022-09-11T13:14:57.725Z,2.83
2022-09-11T13:17:46.967Z,1.50
2022-09-11T13:20:32.416Z,2.55
2022-09-11T13:23:18.487Z,2.13
2022-09-11T13:26:07.659Z,1.90
2022-09-11T13:28:56.413Z,2.28
2022-09-11T13:31:43.297Z,2.38
2022-09-11T13:34:29.812Z,2.28
2022-09-11T13:37:31.196Z,2.80
2022-09-11T13:40:31.316Z,2.65
2022-09-11T13:43:21.573Z,2.75
2022-09-11T13:46:16.393Z,2.20
2022-09-11T13:49:11.867Z,2.13
2022-09-11T13:51:57.281Z,2.28
2022-09-11T13:54:58.556Z,2.33
2022-09-11T13:57:54.548Z,2.65
2022-09-11T14:00:48.555Z,1.83
2022-09-11T14:03:34.524Z,2.65
2022-09-11T14:06:20.829Z,2.38
2022-09-11T14:09:06.068Z,2.78
2022-09-11T14:11:51.547Z,2.85
2022-09-11T14:14:37.235Z,2.30
2022-09-11T14:17:23.067Z,2.72
2022-09-11T14:20:16.910Z,3.20
2022-09-11T14:23:06.195Z,2.70
2022-09-11T14:26:24.940Z,2.30
2022-09-11T14:29:23.152Z,3.55
2022-09-11T14:32:33.851Z,1.80
2022-09-11T14:35:19.151Z,2.20
2022-09-11T14:38:04.560Z,2.00
2022-09-11T14:40:59.241Z,1.60
2022-09-11T14:43:48.866Z,1.95
2022-09-11T14:46:34.726Z,3.10
2022-09-11T14:49:20.704Z,2.08
2022-09-11T14:52:06.647Z,1.92
2022-09-11T14:54:52.396Z,1.40
2022-09-11T14:57:37.490Z,1.50
2022-09-11T15:00:23.472Z,1.80
2022-09-11T15:03:08.956Z,1.55
2022-09-11T15:05:57.164Z,1.50
2022-09-11T15:08:42.971Z,2.25
2022-09-11T15:11:28.552Z,2.40
2022-09-11T15:14:27.576Z,2.00
2022-09-11T15:17:20.521Z,2.03
2022-09-11T15:20:08.985Z,2.70
2022-09-11T15:22:56.031Z,2.38
2022-09-11T15:25:41.221Z,2.85
2022-09-11T15:28:26.640Z,2.15
2022-09-11T15:31:12.547Z,2.83
2022-09-11T15:33:58.354Z,1.92
2022-09-11T15:36:43.531Z,2.58
2022-09-11T15:39:29.652Z,1.75
2022-09-11T15:42:14.865Z,2.40
2022-09-11T15:45:01.862Z,1.45
2022-09-11T15:47:47.819Z,2.42
2022-09-11T15:50:33.113Z,1.92
2022-09-11T15:53:18.405Z,1.80
2022-09-11T15:56:09.824Z,1.92
2022-09-11T15:58:58.608Z,2.88
2022-09-11T16:01:44.849Z,2.20
2022-09-11T16:04:32.122Z,2.53
2022-09-11T16:07:17.398Z,2.50
2022-09-11T16:10:03.247Z,2.25
2022-09-11T16:12:48.432Z,2.13
2022-09-11T16:15:35.545Z,1.73
2022-09-11T16:18:21.059Z,2.95
2022-09-11T16:21:06.929Z,2.50
2022-09-11T16:23:55.128Z,1.80
2022-09-11T16:26:44.150Z,1.73
2022-09-11T16:29:51.121Z,2.20
2022-09-11T16:32:38.075Z,2.83
2022-09-11T16:35:23.413Z,2.95
2022-09-11T16:38:08.657Z,2.85
2022-09-11T16:41:02.167Z,2.08
2022-09-11T16:43:50.252Z,2.95
2022-09-11T16:46:37.186Z,2.38
2022-09-11T16:49:23.943Z,1.85
2022-09-11T16:52:09.144Z,1.88
2022-09-11T16:54:54.616Z,2.00
2022-09-11T16:57:40.422Z,2.00
2022-09-11T17:00:25.538Z,2.88
2022-09-11T17:03:11.124Z,1.73
2022-09-11T17:05:56.548Z,2.00
2022-09-11T17:08:44.774Z,2.05
2022-09-11T17:11:33.344Z,1.70
2022-09-11T17:14:21.096Z,4.00
2022-09-11T17:17:06.108Z,2.20
2022-09-11T17:19:51.883Z,1.83
2022-09-11T17:22:39.077Z,2.80
2022-09-11T17:25:25.885Z,2.17
2022-09-11T17:28:10.945Z,2.33
2022-09-11T17:31:02.101Z,2.25
2022-09-11T17:33:48.585Z,1.60
2022-09-11T17:36:33.781Z,1.90
2022-09-11T17:39:21.271Z,3.15
2022-09-11T17:42:11.026Z,2.58
2022-09-11T17:44:59.984Z,1.88
2022-09-11T17:47:45.651Z,2.58
2022-09-11T17:50:31.272Z,2.13
2022-09-11T17:53:16.980Z,2.10
2022-09-11T17:56:06.861Z,2.13
2022-09-11T17:58:54.787Z,1.92
2022-09-11T18:01:39.993Z,2.72
2022-09-11T18:04:26.824Z,2.03
2022-09-11T18:07:12.478Z,2.45
2022-09-11T18:09:58.720Z,2.40
2022-09-11T18:12:43.913Z,2.53
2022-09-11T18:15:29.374Z,1.70
2022-09-11T18:18:15.291Z,2.00
2022-09-11T18:21:05.469Z,2.75
2022-09-11T18:23:51.408Z,2.90
2022-09-11T18:26:39.486Z,3.15
2022-09-11T18:29:25.831Z,2.60
2022-09-11T18:32:11.305Z,2.88
2022-09-11T18:35:00.022Z,2.80
2022-09-11T18:37:45.742Z,2.65
2022-09-11T18:40:32.397Z,2.45
2022-09-11T18:43:18.148Z,3.58
2022-09-11T18:46:03.798Z,2.78
2022-09-11T18:48:50.332Z,4.60
2022-09-11T18:51:36.125Z,2.67
2022-09-11T18:54:21.698Z,2.55
2022-09-11T18:57:07.300Z,3.00
2022-09-11T18:59:52.918Z,2.92
2022-09-11T19:02:38.708Z,2.50
2022-09-11T19:05:25.127Z,2.25
2022-09-11T19:08:10.885Z,2.92
2022-09-11T19:10:56.605Z,2.33
2022-09-11T19:13:42.680Z,2.00
2022-09-11T19:16:28.830Z,2.85
2022-09-11T19:19:14.365Z,3.25
2022-09-11T19:22:00.395Z,3.17
2022-09-11T19:24:46.040Z,2.30
2022-09-11T19:27:32.649Z,3.50
2022-09-11T19:30:19.098Z,3.13
2022-09-11T19:33:04.655Z,3.22
2022-09-11T19:36:00.151Z,2.58
2022-09-11T19:38:46.841Z,2.35
2022-09-11T19:41:38.039Z,2.90
2022-09-11T19:44:25.153Z,2.25
2022-09-11T19:47:11.254Z,3.25
2022-09-11T19:49:56.796Z,2.40
2022-09-11T19:52:42.502Z,3.55
2022-09-11T19:55:27.942Z,3.17
2022-09-11T19:58:13.895Z,2.70
2022-09-11T20:01:02.864Z,2.85
2022-09-11T20:03:49.133Z,3.08
2022-09-11T20:06:36.033Z,3.00
2022-09-11T20:09:37.260Z,2.85
2022-09-11T20:12:22.520Z,3.58
2022-09-11T20:15:08.406Z,3.90
2022-09-11T20:17:53.833Z,3.83
2022-09-11T20:20:43.461Z,4.05
2022-09-11T20:23:30.700Z,2.80
2022-09-11T20:26:21.822Z,3.30
2022-09-11T20:29:12.231Z,2.90
2022-09-11T20:32:00.544Z,4.03
2022-09-11T20:34:46.278Z,2.88
2022-09-11T20:37:32.475Z,2.58
2022-09-11T20:40:18.377Z,2.60
2022-09-11T20:43:03.611Z,2.30
2022-09-11T20:45:50.606Z,2.50
2022-09-11T20:48:36.300Z,2.10
2022-09-11T20:51:22.915Z,2.30
2022-09-11T20:54:08.816Z,2.15
2022-09-11T20:56:54.080Z,2.00
2022-09-11T20:59:39.762Z,2.42
2022-09-11T21:02:26.475Z,2.95
2022-09-11T21:05:12.156Z,2.42
2022-09-11T21:07:57.320Z,3.75
2022-09-11T21:10:42.788Z,2.75
2022-09-11T21:13:28.245Z,2.92
2022-09-11T21:16:15.318Z,3.35
2022-09-11T21:19:01.351Z,3.15
2022-09-11T21:21:46.861Z,3.47
2022-09-11T21:24:32.426Z,2.45
2022-09-11T21:27:17.964Z,2.97
2022-09-11T21:30:03.728Z,2.90
2022-09-11T21:32:49.255Z,2.20
2022-09-11T21:35:36.779Z,2.10
2022-09-11T21:38:25.312Z,2.40
2022-09-11T21:41:12.057Z,2.28
2022-09-11T21:43:57.520Z,2.90
2022-09-11T21:46:42.861Z,2.70
2022-09-11T21:49:28.195Z,3.30
2022-09-11T21:52:13.801Z,3.38
2022-09-11T21:54:59.232Z,3.25
2022-09-11T21:57:45.018Z,3.65
2022-09-11T22:00:30.609Z,3.10
2022-09-11T22:03:18.348Z,4.20
2022-09-11T22:06:08.175Z,3.10
2022-09-11T22:08:53.698Z,3.50
2022-09-11T22:11:38.890Z,3.65
2022-09-11T22:14:25.031Z,4.03
2022-09-11T22:17:11.871Z,3.30
2022-09-11T22:19:56.985Z,4.03
2022-09-11T22:22:42.632Z,3.95
2022-09-11T22:25:27.842Z,3.17
2022-09-11T22:28:13.618Z,4.57
2022-09-11T22:30:58.738Z,4.00
2022-09-11T22:33:44.497Z,3.85
2022-09-11T22:36:30.493Z,4.25
2022-09-11T22:39:15.969Z,4.32
2022-09-11T22:42:01.193Z,4.93
2022-09-11T22:44:46.748Z,4.28
2022-09-11T22:47:33.458Z,5.05
2022-09-11T22:50:18.708Z,4.20
2022-09-11T22:53:04.123Z,3.92
2022-09-11T22:55:49.723Z,5.18
2022-09-11T22:58:35.346Z,4.88
2022-09-11T23:01:22.715Z,4.50
2022-09-11T23:04:08.393Z,5.00
2022-09-11T23:07:12.322Z,5.53
2022-09-11T23:09:57.631Z,4.97
2022-09-11T23:12:44.356Z,5.82
2022-09-11T23:15:29.467Z,5.15
2022-09-11T23:18:15.308Z,5.47
2022-09-11T23:21:00.533Z,5.45
2022-09-11T23:23:54.747Z,5.30
2022-09-11T23:26:40.432Z,5.55
2022-09-11T23:29:25.610Z,5.47
2022-09-11T23:32:11.103Z,7.60
2022-09-11T23:34:56.523Z,6.43
2022-09-11T23:37:45.291Z,6.38
2022-09-11T23:40:33.416Z,7.07
2022-09-11T23:43:18.788Z,7.85
2022-09-11T23:46:04.509Z,6.72
2022-09-11T23:48:49.694Z,6.95
2022-09-11T23:51:34.976Z,7.28
2022-09-11T23:54:20.515Z,7.85
2022-09-11T23:57:06.126Z,7.80
2022-09-11T23:59:51.248Z,8.32
